Time;durP1;ratioP1;P1;durP2;ratioP2;P2;SDS_P1;SDS_P2;PMS_P1;PMS_P2;Temp;Humidity;BMP_temperature;BMP_pressure;BME280_temperature;BME280_humidity;BME280_pressure;Samples;Min_cycle;Max_cycle;Signal;HPM_P1;HPM_P2
2023/06/10 00:00:45;;;;;;;12.38;7.22;;;17.50;99.90;;;;;;7381148;19;20035;-87
2023/06/10 00:03:12;;;;;;;11.80;5.20;;;17.50;99.90;;;;;;7380051;19;20479;-88
2023/06/10 00:05:39;;;;;;;11.55;5.20;;;17.50;99.90;;;;;;7381588;19;20022;-88
2023/06/10 00:08:07;;;;;;;9.85;5.97;;;17.50;99.90;;;;;;7381192;19;20096;-89
2023/06/10 00:10:37;;;;;;;9.40;6.80;;;17.40;99.90;;;;;;7380005;19;20023;-88
2023/06/10 00:13:05;;;;;;;11.35;8.00;;;17.40;99.90;;;;;;7380552;19;20014;-88
2023/06/10 00:15:38;;;;;;;16.95;12.43;;;17.30;99.90;;;;;;7380622;19;20085;-88
2023/06/10 00:18:09;;;;;;;9.32;5.53;;;17.30;99.90;;;;;;7381532;19;20034;-88
2023/06/10 00:20:37;;;;;;;9.98;5.05;;;17.30;99.90;;;;;;7382736;19;20014;-88
2023/06/10 00:23:06;;;;;;;15.60;10.32;;;17.30;99.90;;;;;;7387904;19;20026;-88
2023/06/10 00:25:34;;;;;;;8.55;5.63;;;17.20;99.90;;;;;;7390567;19;20017;-87
2023/06/10 00:28:01;;;;;;;9.48;5.20;;;17.20;99.90;;;;;;7385139;19;20025;-89
2023/06/10 00:30:29;;;;;;;17.60;14.70;;;17.20;99.90;;;;;;7388485;19;20039;-88
2023/06/10 00:32:56;;;;;;;9.20;5.15;;;17.20;99.90;;;;;;7387348;19;20014;-89
2023/06/10 00:35:22;;;;;;;10.18;5.43;;;17.10;99.90;;;;;;7385980;19;20011;-88
2023/06/10 00:37:49;;;;;;;10.75;5.78;;;17.10;99.90;;;;;;7389256;19;20039;-89
2023/06/10 00:40:17;;;;;;;12.32;6.45;;;17.10;99.90;;;;;;7380268;19;20371;-88
2023/06/10 00:42:44;;;;;;;10.60;5.40;;;17.00;99.90;;;;;;7387064;19;20018;-89
2023/06/10 00:45:11;;;;;;;9.80;5.93;;;17.00;99.90;;;;;;7386016;19;20022;-90
2023/06/10 00:47:40;;;;;;;17.75;13.50;;;17.00;99.90;;;;;;7386234;19;20014;-88
2023/06/10 00:50:07;;;;;;;11.45;8.60;;;17.00;99.90;;;;;;7385737;19;20394;-88
2023/06/10 00:52:38;;;;;;;9.73;6.07;;;16.90;99.90;;;;;;7389431;19;20037;-88
2023/06/10 00:55:07;;;;;;;13.38;6.38;;;16.90;99.90;;;;;;7386432;19;20035;-88
2023/06/10 00:57:36;;;;;;;12.57;6.53;;;16.90;99.90;;;;;;7386989;19;20010;-88
2023/06/10 01:00:07;;;;;;;12.27;8.40;;;16.90;99.90;;;;;;7382896;19;20006;-87
2023/06/10 01:02:35;;;;;;;14.73;8.57;;;16.80;99.90;;;;;;7386274;19;20034;-89
2023/06/10 01:05:03;;;;;;;11.98;5.90;;;16.80;99.90;;;;;;7382832;19;20015;-87
2023/06/10 01:07:48;;;;;;;10.98;6.50;;;16.80;99.90;;;;;;7383857;19;20134;-88
2023/06/10 01:10:32;;;;;;;10.52;6.50;;;16.80;99.90;;;;;;7382291;19;20099;-88
2023/06/10 01:13:08;;;;;;;;;;;16.80;99.90;;;;;;7386866;19;20052;-88
2023/06/10 01:15:35;;;;;;;15.63;8.18;;;16.70;99.90;;;;;;7386746;19;19986;-89
2023/06/10 01:18:14;;;;;;;8.43;5.82;;;16.70;99.90;;;;;;7382989;19;20010;-89
2023/06/10 01:20:43;;;;;;;8.98;5.88;;;16.70;99.90;;;;;;7384802;19;20498;-88
2023/06/10 01:23:12;;;;;;;8.73;5.90;;;16.60;99.90;;;;;;7381387;19;20014;-89
2023/06/10 01:25:52;;;;;;;10.25;6.38;;;16.60;99.90;;;;;;7382931;19;20030;-89
2023/06/10 01:28:36;;;;;;;10.80;6.20;;;16.60;99.90;;;;;;7381734;19;20018;-88
2023/06/10 01:31:13;;;;;;;10.27;6.60;;;16.60;99.90;;;;;;7384879;19;20013;-88
2023/06/10 01:33:47;;;;;;;10.82;5.88;;;16.60;99.90;;;;;;7382553;19;20007;-88
2023/06/10 01:36:17;;;;;;;17.17;13.37;;;16.50;99.90;;;;;;7382785;19;20021;-89
2023/06/10 01:38:45;;;;;;;13.05;6.93;;;16.50;99.90;;;;;;7379708;19;20029;-88
2023/06/10 01:41:15;;;;;;;12.43;6.32;;;16.40;99.90;;;;;;7383279;19;20045;-87
2023/06/10 01:43:44;;;;;;;9.35;5.97;;;16.40;99.90;;;;;;7382732;19;20031;-89
2023/06/10 01:46:14;;;;;;;13.43;9.73;;;16.40;99.90;;;;;;7381994;19;20478;-89
2023/06/10 01:48:42;;;;;;;11.45;5.45;;;16.30;99.90;;;;;;7381054;19;20241;-88
2023/06/10 01:51:09;;;;;;;11.10;6.63;;;16.30;99.90;;;;;;7382193;19;20038;-88
2023/06/10 01:53:36;;;;;;;11.18;6.60;;;16.30;99.90;;;;;;7385040;19;20031;-88
2023/06/10 01:56:03;;;;;;;14.10;8.27;;;16.30;99.90;;;;;;7380750;19;20018;-89
2023/06/10 01:58:30;;;;;;;11.68;6.85;;;16.30;99.90;;;;;;7383146;19;20082;-89
2023/06/10 02:00:57;;;;;;;12.13;7.10;;;16.20;99.90;;;;;;7382893;19;20014;-88
2023/06/10 02:03:23;;;;;;;11.50;6.40;;;16.20;99.90;;;;;;7382976;19;20033;-89
2023/06/10 02:05:53;;;;;;;10.32;6.15;;;16.10;99.90;;;;;;7382831;19;20021;-88
2023/06/10 02:08:19;;;;;;;9.05;5.85;;;16.10;99.90;;;;;;7381584;19;20019;-88
2023/06/10 02:10:47;;;;;;;14.25;8.10;;;16.10;99.90;;;;;;7381808;19;20021;-88
2023/06/10 02:13:13;;;;;;;10.80;6.60;;;16.10;99.90;;;;;;7383081;19;20392;-88
2023/06/10 02:15:39;;;;;;;13.45;6.38;;;16.00;99.90;;;;;;7383956;19;20022;-87
2023/06/10 02:18:09;;;;;;;11.10;6.57;;;16.00;99.90;;;;;;7382907;19;20114;-87
2023/06/10 02:20:40;;;;;;;12.32;7.20;;;15.90;99.90;;;;;;7381548;19;20029;-88
2023/06/10 02:23:12;;;;;;;11.70;6.43;;;15.90;99.90;;;;;;7383923;19;20017;-88
2023/06/10 02:25:42;;;;;;;15.13;7.32;;;15.90;99.90;;;;;;7383504;19;20022;-88
2023/06/10 02:28:14;;;;;;;10.48;5.97;;;15.80;99.90;;;;;;7381499;19;20047;-88
2023/06/10 02:30:42;;;;;;;16.20;6.60;;;15.80;99.90;;;;;;7384480;19;20302;-88
2023/06/10 02:33:11;;;;;;;13.32;6.85;;;15.80;99.90;;;;;;7383622;19;20030;-89
2023/06/10 02:35:39;;;;;;;12.48;7.13;;;15.80;99.90;;;;;;7381996;19;20031;-89
2023/06/10 02:38:06;;;;;;;12.02;6.47;;;15.70;99.90;;;;;;7381461;19;20182;-89
2023/06/10 02:40:34;;;;;;;10.52;7.18;;;15.70;99.90;;;;;;7383873;19;20010;-88
2023/06/10 02:43:02;;;;;;;8.95;6.45;;;15.70;99.90;;;;;;7383023;19;20014;-88
2023/06/10 02:45:31;;;;;;;15.00;7.22;;;15.60;99.90;;;;;;7383110;19;20378;-88
2023/06/10 02:48:04;;;;;;;11.00;7.00;;;15.60;99.90;;;;;;7379589;19;20062;-89
2023/06/10 02:50:32;;;;;;;9.98;6.40;;;15.60;99.90;;;;;;7384350;19;20025;-88
2023/06/10 02:53:13;;;;;;;9.40;6.63;;;15.50;99.90;;;;;;7383739;19;20018;-88
2023/06/10 02:55:44;;;;;;;10.80;6.25;;;15.50;99.90;;;;;;7384181;19;20522;-88
2023/06/10 02:58:20;;;;;;;12.05;7.63;;;15.40;99.90;;;;;;7382757;19;20085;-88
2023/06/10 03:00:47;;;;;;;10.63;7.13;;;15.30;99.90;;;;;;7383131;19;20014;-88
2023/06/10 03:03:15;;;;;;;9.40;6.15;;;15.30;99.90;;;;;;7382767;19;20014;-88
2023/06/10 03:05:56;;;;;;;9.35;6.20;;;15.30;99.90;;;;;;7382298;19;20019;-88
2023/06/10 03:08:26;;;;;;;12.50;7.63;;;15.30;99.90;;;;;;7380010;19;20035;-89
2023/06/10 03:10:56;;;;;;;10.23;6.07;;;15.20;99.90;;;;;;7384334;19;20043;-88
2023/06/10 03:13:23;;;;;;;10.40;6.32;;;15.20;99.90;;;;;;7383661;19;20063;-88
2023/06/10 03:15:51;;;;;;;9.02;6.63;;;15.20;99.90;;;;;;7384167;19;20014;-88
2023/06/10 03:18:22;;;;;;;12.50;6.43;;;15.10;99.90;;;;;;7383487;19;20101;-87
2023/06/10 03:20:52;;;;;;;10.85;7.22;;;15.10;99.90;;;;;;7386430;19;20015;-88
2023/06/10 03:23:19;;;;;;;14.32;7.50;;;15.00;99.90;;;;;;7384633;19;20026;-88
2023/06/10 03:25:49;;;;;;;13.02;6.88;;;15.00;99.90;;;;;;7386000;19;20354;-88
2023/06/10 03:28:27;;;;;;;11.88;6.20;;;15.00;99.90;;;;;;7379316;19;20023;-87
2023/06/10 03:30:55;;;;;;;11.00;6.88;;;14.90;99.90;;;;;;7382632;19;20035;-88
2023/06/10 03:33:34;;;;;;;11.48;6.45;;;14.90;99.90;;;;;;7383291;19;20016;-88
2023/06/10 03:36:01;;;;;;;12.05;6.60;;;14.90;99.90;;;;;;7382999;19;20361;-89
2023/06/10 03:38:33;;;;;;;;;;;14.80;99.90;;;;;;7380862;19;20015;-88
2023/06/10 03:41:00;;;;;;;10.95;6.95;;;14.80;99.90;;;;;;7383488;19;19981;-87
2023/06/10 03:43:31;;;;;;;9.90;6.35;;;14.80;99.90;;;;;;7383221;19;20015;-88
2023/06/10 03:46:04;;;;;;;10.02;6.53;;;14.80;99.90;;;;;;7382947;19;20022;-88
2023/06/10 03:48:32;;;;;;;9.57;5.97;;;14.80;99.90;;;;;;7381981;19;20479;-88
2023/06/10 03:51:00;;;;;;;8.73;6.22;;;14.80;99.90;;;;;;7381820;19;20018;-88
2023/06/10 03:53:28;;;;;;;9.68;7.18;;;14.70;99.90;;;;;;7383919;19;20051;-88
2023/06/10 03:55:57;;;;;;;8.25;6.05;;;14.70;99.90;;;;;;7385404;19;20039;-88
2023/06/10 03:58:24;;;;;;;12.63;7.07;;;14.70;99.90;;;;;;7387068;19;20609;-88
2023/06/10 04:00:51;;;;;;;9.70;5.97;;;14.70;99.90;;;;;;7388681;19;20023;-88
2023/06/10 04:03:17;;;;;;;11.20;7.00;;;14.70;99.90;;;;;;7384990;19;20487;-88
2023/06/10 04:05:47;;;;;;;11.82;6.53;;;14.70;99.90;;;;;;7386825;19;20087;-87
2023/06/10 04:08:13;;;;;;;11.60;7.43;;;14.70;99.90;;;;;;7382485;19;20049;-89
2023/06/10 04:10:40;;;;;;;11.25;5.95;;;14.70;99.90;;;;;;7387912;19;20022;-89
2023/06/10 04:13:08;;;;;;;13.55;6.82;;;14.70;99.90;;;;;;7386747;19;20014;-87
2023/06/10 04:15:43;;;;;;;8.27;6.20;;;14.70;99.90;;;;;;7390646;19;20022;-88
2023/06/10 04:18:15;;;;;;;11.30;6.65;;;14.70;99.90;;;;;;7388816;19;20022;-88
2023/06/10 04:20:44;;;;;;;13.55;6.05;;;14.70;99.90;;;;;;7392336;19;20018;-88
2023/06/10 04:23:11;;;;;;;8.43;5.82;;;14.70;99.90;;;;;;7390451;19;20035;-87
2023/06/10 04:25:40;;;;;;;12.52;6.53;;;14.70;99.90;;;;;;7390622;19;20022;-87
2023/06/10 04:28:07;;;;;;;13.32;7.25;;;14.80;99.90;;;;;;7388684;19;20014;-88
2023/06/10 04:30:34;;;;;;;10.60;6.13;;;14.80;99.90;;;;;;7392385;19;20022;-88
2023/06/10 04:33:02;;;;;;;14.70;7.05;;;14.80;99.90;;;;;;7394248;19;20348;-88
2023/06/10 04:35:30;;;;;;;12.30;6.95;;;14.80;99.90;;;;;;7394128;19;20471;-87
2023/06/10 04:38:04;;;;;;;11.27;6.85;;;14.90;99.90;;;;;;7404238;19;20042;-88
2023/06/10 04:40:32;;;;;;;13.48;7.05;;;14.90;99.90;;;;;;7422631;19;20003;-88
2023/06/10 04:43:00;;;;;;;14.32;8.18;;;14.90;99.90;;;;;;7422646;19;20014;-88
2023/06/10 04:45:29;;;;;;;13.75;6.78;;;15.00;99.90;;;;;;7421014;19;20007;-88
2023/06/10 04:48:10;;;;;;;12.95;7.28;;;15.00;99.90;;;;;;7419179;19;20007;-87
2023/06/10 04:50:47;;;;;;;12.70;6.80;;;15.10;99.90;;;;;;7394106;19;20116;-89
2023/06/10 04:53:16;;;;;;;9.68;7.13;;;15.10;99.90;;;;;;7394353;19;20600;-89
2023/06/10 04:55:48;;;;;;;13.35;7.63;;;15.10;99.90;;;;;;7392625;19;20014;-88
2023/06/10 04:58:17;;;;;;;14.20;6.97;;;15.20;99.90;;;;;;7392023;19;20013;-88
2023/06/10 05:00:44;;;;;;;10.93;6.28;;;15.30;99.90;;;;;;7395631;19;20010;-89
2023/06/10 05:03:10;;;;;;;14.85;6.57;;;15.30;99.90;;;;;;7391845;19;20242;-87
2023/06/10 05:05:37;;;;;;;12.75;7.45;;;15.40;99.90;;;;;;7393162;19;20463;-87
2023/06/10 05:08:03;;;;;;;13.85;7.53;;;15.60;99.90;;;;;;7390518;19;21153;-88
2023/06/10 05:10:53;;;;;;;10.98;6.45;;;16.00;99.90;;;;;;7392423;19;20014;-88
2023/06/10 05:13:44;;;;;;;12.38;7.07;;;16.30;99.90;;;;;;7394256;19;20018;-88
2023/06/10 05:16:30;;;;;;;12.27;6.70;;;16.70;99.90;;;;;;7392234;19;20070;-89
2023/06/10 05:19:17;;;;;;;14.07;7.07;;;17.00;99.90;;;;;;7388022;19;20348;-89
2023/06/10 05:22:04;;;;;;;11.82;5.93;;;17.30;99.90;;;;;;7393245;19;20017;-89
2023/06/10 05:25:01;;;;;;;13.43;6.68;;;17.40;99.90;;;;;;7391566;19;20019;-89
2023/06/10 05:27:48;;;;;;;10.68;6.72;;;17.50;99.90;;;;;;7386073;19;20022;-87
2023/06/10 05:30:16;;;;;;;8.57;5.28;;;17.50;99.90;;;;;;7383761;19;20493;-87
2023/06/10 05:32:53;;;;;;;12.85;7.40;;;17.70;99.90;;;;;;7387007;19;20018;-88
2023/06/10 05:35:23;;;;;;;13.50;6.50;;;17.80;99.90;;;;;;7384683;19;20011;-88
2023/06/10 05:37:49;;;;;;;13.70;7.10;;;18.00;99.90;;;;;;7387593;19;20715;-88
2023/06/10 05:40:22;;;;;;;9.32;5.90;;;18.30;99.90;;;;;;7383179;19;20492;-88
2023/06/10 05:42:48;;;;;;;10.73;6.28;;;18.30;99.90;;;;;;7384518;19;20047;-88
2023/06/10 05:45:15;;;;;;;10.23;5.82;;;18.40;99.90;;;;;;7385176;19;20050;-87
2023/06/10 05:47:43;;;;;;;8.88;5.80;;;18.40;99.90;;;;;;7382005;19;20006;-87
2023/06/10 05:50:10;;;;;;;11.82;6.30;;;18.60;99.90;;;;;;7384426;19;20018;-87
2023/06/10 05:52:40;;;;;;;12.50;6.18;;;18.70;99.90;;;;;;7386094;19;20019;-88
2023/06/10 05:55:07;;;;;;;12.23;5.95;;;18.90;99.90;;;;;;7386413;19;20475;-88
2023/06/10 05:57:42;;;;;;;9.15;6.10;;;19.00;99.90;;;;;;7384880;19;20018;-90
2023/06/10 06:00:09;;;;;;;10.45;6.45;;;19.20;99.90;;;;;;7382238;19;20033;-89
2023/06/10 06:02:42;;;;;;;9.77;5.97;;;19.30;99.90;;;;;;7383281;19;20025;-89
2023/06/10 06:05:09;;;;;;;10.73;6.45;;;19.50;99.90;;;;;;7385207;19;20022;-89
2023/06/10 06:07:36;;;;;;;11.18;6.60;;;19.20;99.90;;;;;;7384836;19;20032;-91
2023/06/10 06:10:04;;;;;;;8.70;5.70;;;19.40;99.90;;;;;;7385787;19;20085;-89
2023/06/10 06:12:31;;;;;;;15.88;12.65;;;19.80;99.90;;;;;;7386021;19;20051;-89
2023/06/10 06:14:58;;;;;;;23.73;15.63;;;20.00;99.90;;;;;;7382314;19;20022;-87
2023/06/10 06:17:25;;;;;;;11.00;6.40;;;20.40;99.90;;;;;;7382076;19;20026;-91
2023/06/10 06:19:53;;;;;;;11.02;5.93;;;20.50;99.90;;;;;;7376923;19;20515;-90
2023/06/10 06:22:23;;;;;;;134.85;120.28;;;20.70;99.90;;;;;;7382043;19;20014;-92
2023/06/10 06:24:53;;;;;;;42.95;37.75;;;20.80;99.90;;;;;;7379259;19;20015;-91
2023/06/10 06:27:23;;;;;;;45.17;38.05;;;20.80;99.90;;;;;;7379023;19;20437;-90
2023/06/10 06:29:52;;;;;;;26.27;20.55;;;20.90;99.90;;;;;;7380410;19;20014;-90
2023/06/10 06:32:19;;;;;;;13.50;9.25;;;21.10;99.90;;;;;;7383199;19;20015;-90
2023/06/10 06:34:49;;;;;;;12.18;7.85;;;21.10;99.90;;;;;;7383940;19;20035;-91
2023/06/10 06:37:25;;;;;;;14.50;9.82;;;21.20;99.90;;;;;;7378923;19;20375;-91
2023/06/10 06:40:08;;;;;;;17.75;13.60;;;21.30;99.90;;;;;;7382928;19;20011;-91
2023/06/10 06:42:37;;;;;;;14.32;9.35;;;21.60;99.90;;;;;;7381376;19;20022;-91
2023/06/10 06:45:18;;;;;;;10.38;8.27;;;21.60;99.90;;;;;;7381187;19;20039;-91
2023/06/10 06:47:52;;;;;;;10.90;7.13;;;21.50;99.90;;;;;;7381891;19;20356;-91
2023/06/10 06:50:19;;;;;;;14.25;10.43;;;21.40;99.90;;;;;;7380889;19;20011;-90
2023/06/10 06:52:47;;;;;;;14.88;11.63;;;21.60;99.90;;;;;;7379841;19;20031;-91
2023/06/10 06:55:23;;;;;;;13.70;10.18;;;21.50;99.90;;;;;;7380545;19;20014;-92
2023/06/10 06:57:59;;;;;;;70.03;63.13;;;21.70;99.90;;;;;;7386455;19;20054;-93
2023/06/10 07:00:26;;;;;;;12.63;8.35;;;21.90;99.90;;;;;;7380815;19;20015;-92
2023/06/10 07:02:57;;;;;;;13.43;8.55;;;22.10;99.90;;;;;;7386213;19;20479;-92
2023/06/10 07:05:48;;;;;;;17.83;12.40;;;22.00;99.90;;;;;;7378181;19;20404;-90
2023/06/10 07:08:16;;;;;;;19.08;12.70;;;22.30;99.90;;;;;;7381271;19;20015;-90
2023/06/10 07:10:44;;;;;;;9.98;5.60;;;22.30;99.90;;;;;;7382735;19;20081;-90
2023/06/10 07:13:18;;;;;;;19.60;15.93;;;22.60;99.90;;;;;;7381400;19;20014;-91
2023/06/10 07:15:47;;;;;;;14.13;12.00;;;22.60;99.90;;;;;;7376939;19;20018;-90
2023/06/10 07:18:17;;;;;;;10.38;7.40;;;22.60;99.90;;;;;;7380393;19;20024;-90
2023/06/10 07:20:45;;;;;;;15.45;11.98;;;22.70;99.90;;;;;;7375863;19;20033;-93
2023/06/10 07:23:14;;;;;;;7.70;4.72;;;22.80;99.90;;;;;;7379192;19;20078;-90
2023/06/10 07:25:44;;;;;;;13.18;6.65;;;23.00;99.90;;;;;;7384054;19;20646;-91
2023/06/10 07:28:23;;;;;;;16.90;13.23;;;23.20;99.90;;;;;;7378773;19;20023;-91
2023/06/10 07:30:59;;;;;;;11.65;6.93;;;23.30;99.90;;;;;;7380878;19;20030;-90
2023/06/10 07:33:26;;;;;;;10.50;7.65;;;23.40;99.90;;;;;;7387558;19;20023;-92
2023/06/10 07:35:53;;;;;;;12.68;9.68;;;23.60;99.90;;;;;;7384506;19;20043;-89
2023/06/10 07:38:20;;;;;;;21.02;15.80;;;23.80;99.90;;;;;;7385449;19;20018;-88
2023/06/10 07:40:48;;;;;;;8.50;5.88;;;24.20;99.90;;;;;;7384385;19;20491;-91
2023/06/10 07:43:15;;;;;;;22.88;17.85;;;24.00;99.90;;;;;;7384990;19;20032;-91
2023/06/10 07:45:42;;;;;;;14.77;11.52;;;24.00;99.90;;;;;;7381948;19;20518;-92
2023/06/10 07:48:10;;;;;;;24.65;22.00;;;24.10;99.90;;;;;;7379826;19;20453;-90
2023/06/10 07:50:37;;;;;;;10.88;6.22;;;24.30;99.90;;;;;;7385265;19;20483;-90
2023/06/10 07:53:04;;;;;;;11.75;8.82;;;24.20;98.60;;;;;;7385863;19;20486;-91
2023/06/10 07:55:31;;;;;;;10.75;6.03;;;24.00;99.50;;;;;;7387806;19;20018;-91
2023/06/10 07:57:59;;;;;;;9.23;7.03;;;24.40;98.50;;;;;;7388075;19;20014;-90
2023/06/10 08:00:38;;;;;;;14.90;10.82;;;24.40;99.20;;;;;;7384387;19;20449;-89
2023/06/10 08:03:15;;;;;;;18.63;16.52;;;24.60;98.30;;;;;;7389845;19;20915;-93
2023/06/10 08:05:55;;;;;;;19.25;10.88;;;24.80;97.80;;;;;;7388676;19;20018;-92
2023/06/10 08:08:40;;;;;;;12.85;8.85;;;24.80;95.80;;;;;;7387458;19;20496;-93
2023/06/10 08:11:11;;;;;;;8.68;6.07;;;25.00;95.80;;;;;;7390243;19;20018;-92
2023/06/10 08:13:41;;;;;;;45.47;41.28;;;25.30;94.60;;;;;;7392582;19;20018;-93
2023/06/10 08:16:08;;;;;;;30.13;27.20;;;25.40;93.70;;;;;;7395334;19;20031;-92
2023/06/10 08:18:37;;;;;;;13.80;12.27;;;25.60;92.80;;;;;;7393616;19;20011;-91
2023/06/10 08:21:05;;;;;;;13.18;7.57;;;25.90;91.40;;;;;;7394061;19;20014;-93
2023/06/10 08:23:31;;;;;;;17.05;11.13;;;25.90;90.00;;;;;;7392385;19;20022;-91
2023/06/10 08:26:05;;;;;;;14.18;11.85;;;26.10;89.30;;;;;;7392214;19;20347;-92
2023/06/10 08:28:33;;;;;;;9.43;8.25;;;26.40;86.50;;;;;;7386680;19;20094;-90
2023/06/10 08:31:10;;;;;;;10.70;6.40;;;26.40;83.90;;;;;;7388877;19;20011;-90
2023/06/10 08:33:37;;;;;;;10.65;5.28;;;26.70;81.30;;;;;;7389281;19;20039;-92
2023/06/10 08:36:04;;;;;;;7.28;4.38;;;26.60;75.00;;;;;;7390345;19;20018;-92
2023/06/10 08:38:32;;;;;;;9.93;4.53;;;26.80;72.80;;;;;;7386797;19;20046;-90
2023/06/10 08:41:01;;;;;;;10.27;6.47;;;26.50;69.90;;;;;;7387875;19;20059;-91
2023/06/10 08:43:59;;;;;;;6.57;4.75;;;26.80;69.90;;;;;;7386112;19;20019;-92
2023/06/10 08:46:26;;;;;;;5.82;4.60;;;26.80;64.90;;;;;;7382070;19;20039;-90
2023/06/10 08:49:04;;;;;;;9.50;4.80;;;27.10;65.90;;;;;;7385028;19;20010;-91
2023/06/10 08:51:34;;;;;;;13.85;11.73;;;27.20;64.70;;;;;;7386167;19;20018;-90
2023/06/10 08:54:22;;;;;;;7.93;4.53;;;27.20;62.40;;;;;;7388038;19;20014;-89
2023/06/10 08:56:55;;;;;;;9.63;6.72;;;27.30;61.10;;;;;;7384670;19;20022;-90
2023/06/10 08:59:25;;;;;;;9.90;5.32;;;27.30;60.00;;;;;;7382384;19;20018;-88
2023/06/10 09:01:55;;;;;;;9.73;4.82;;;27.10;60.80;;;;;;7378085;19;20024;-92
2023/06/10 09:05:02;;;;;;;8.40;5.70;;;27.00;60.40;;;;;;7395861;19;20030;-93
2023/06/10 09:07:40;;;;;;;7.43;4.70;;;27.30;60.00;;;;;;7392611;19;20448;-92
2023/06/10 09:10:08;;;;;;;6.82;4.53;;;27.50;58.90;;;;;;7393462;19;20058;-91
2023/06/10 09:12:35;;;;;;;8.50;4.85;;;27.70;58.70;;;;;;7382985;19;20475;-91
2023/06/10 09:15:06;;;;;;;11.80;7.85;;;27.80;58.10;;;;;;7380641;19;20019;-91
2023/06/10 09:17:33;;;;;;;6.50;4.82;;;28.10;57.90;;;;;;7383777;19;20031;-92
2023/06/10 09:20:02;;;;;;;7.18;3.90;;;28.30;56.50;;;;;;7382514;19;20627;-91
2023/06/10 09:22:37;;;;;;;6.55;4.88;;;28.60;55.00;;;;;;7382031;19;20518;-91
2023/06/10 09:25:05;;;;;;;9.13;4.70;;;28.60;54.50;;;;;;7380413;19;20023;-91
2023/06/10 09:27:32;;;;;;;9.93;3.95;;;29.00;54.10;;;;;;7379634;19;20490;-89
2023/06/10 09:30:15;;;;;;;7.40;5.10;;;28.90;53.70;;;;;;7380270;19;20515;-91
2023/06/10 09:32:49;;;;;;;7.43;4.30;;;29.00;52.80;;;;;;7385275;19;20355;-91
2023/06/10 09:35:23;;;;;;;6.80;4.45;;;29.10;51.60;;;;;;7384816;19;20114;-90
2023/06/10 09:37:56;;;;;;;7.45;3.88;;;29.10;50.50;;;;;;7382267;19;20015;-90
2023/06/10 09:40:32;;;;;;;7.05;3.80;;;29.30;49.70;;;;;;7380360;19;20027;-91
2023/06/10 09:43:18;;;;;;;;;;;;;;;;;;;;;
2023/06/10 09:45:55;;;;;;;15.20;13.65;;;29.40;48.90;;;;;;7382301;19;20022;-87
2023/06/10 09:48:40;;;;;;;14.32;12.68;;;29.20;47.20;;;;;;7380599;19;20022;-91
2023/06/10 09:51:17;;;;;;;11.05;8.65;;;29.40;47.10;;;;;;7381781;19;20042;-88
2023/06/10 09:53:54;;;;;;;7.82;5.82;;;29.40;47.90;;;;;;7377615;19;20056;-89
2023/06/10 09:56:42;;;;;;;11.20;9.45;;;29.40;46.10;;;;;;7382601;19;20022;-89
2023/06/10 09:59:11;;;;;;;7.82;5.72;;;29.90;45.50;;;;;;7382861;19;20035;-89
2023/06/10 10:01:43;;;;;;;9.38;8.32;;;30.10;46.00;;;;;;7384933;19;20014;-90
2023/06/10 10:04:21;;;;;;;7.25;5.10;;;30.30;45.20;;;;;;7381676;19;20532;-91
2023/06/10 10:06:53;;;;;;;5.70;3.75;;;30.30;45.60;;;;;;7377929;19;20026;-89
2023/06/10 10:09:28;;;;;;;7.20;5.43;;;30.80;44.20;;;;;;7383392;19;20018;-89
2023/06/10 10:12:00;;;;;;;8.85;6.03;;;30.60;43.50;;;;;;7382138;19;20070;-90
2023/06/10 10:25:25;;;;;;;50.53;46.10;;;30.80;42.50;;;;;;6935568;19;8997333;-87
2023/06/10 10:28:37;;;;;;;48.25;44.03;;;31.30;43.10;;;;;;7395889;19;20290;-85
2023/06/10 10:31:29;;;;;;;15.15;13.68;;;31.50;40.50;;;;;;7399982;19;20043;-86
2023/06/10 10:34:18;;;;;;;7.88;5.85;;;31.30;38.90;;;;;;7397871;19;20510;-89
2023/06/10 10:36:49;;;;;;;4.40;2.80;;;31.40;39.20;;;;;;7408460;19;20022;-91
2023/06/10 10:39:22;;;;;;;7.25;5.85;;;31.40;38.00;;;;;;7404852;19;20267;-89
2023/06/10 10:41:49;;;;;;;5.03;2.75;;;31.50;37.70;;;;;;7407949;19;20506;-87
2023/06/10 10:44:21;;;;;;;5.55;3.05;;;31.00;37.90;;;;;;7399683;19;20021;-90
2023/06/10 10:58:16;;;;;;;6.47;3.30;;;31.60;38.20;;;;;;7392636;19;20398;-89
2023/06/10 11:00:45;;;;;;;4.95;3.05;;;31.80;37.80;;;;;;7398981;19;20047;-81
2023/06/10 11:03:26;;;;;;;5.63;2.85;;;31.80;37.60;;;;;;7406411;19;20014;-86
2023/06/10 12:05:11;;;;;;;5.18;2.70;;;34.00;31.30;;;;;;7367271;19;20397;-85
2023/06/10 12:12:51;;;;;;;5.40;4.18;;;33.00;30.70;;;;;;7365211;19;20015;-87
2023/06/10 12:24:02;;;;;;;4.95;4.15;;;33.60;31.10;;;;;;7364087;19;20494;-85
2023/06/10 12:26:45;;;;;;;6.85;4.60;;;33.60;30.00;;;;;;7403647;19;20403;-95
2023/06/10 12:29:24;;;;;;;6.45;4.65;;;33.70;32.30;;;;;;7406644;19;20036;-84
2023/06/10 12:32:03;;;;;;;5.45;3.25;;;33.80;30.00;;;;;;7406525;19;20014;-89
2023/06/10 12:34:35;;;;;;;8.32;3.72;;;33.70;30.30;;;;;;7410632;19;20026;-96
2023/06/10 12:37:03;;;;;;;3.42;2.40;;;33.60;30.20;;;;;;7404446;19;20052;-85
2023/06/10 12:39:34;;;;;;;3.83;2.55;;;33.40;29.70;;;;;;7405037;19;20410;-87
2023/06/10 12:42:01;;;;;;;6.45;2.92;;;33.80;30.40;;;;;;7404700;19;20105;-87
2023/06/10 12:44:35;;;;;;;4.78;2.83;;;33.80;30.10;;;;;;7404589;19;20018;-85
2023/06/10 12:47:13;;;;;;;5.13;3.30;;;33.50;29.20;;;;;;7399535;19;20018;-83
2023/06/10 12:49:40;;;;;;;4.78;3.47;;;33.80;29.60;;;;;;7398938;19;20026;-87
2023/06/10 12:52:07;;;;;;;6.82;4.60;;;33.50;30.20;;;;;;7403156;19;20043;-88
2023/06/10 12:54:34;;;;;;;5.55;3.65;;;33.70;30.50;;;;;;7399917;19;20022;-84
2023/06/10 12:57:01;;;;;;;8.02;6.50;;;34.00;31.00;;;;;;7402312;19;20643;-87
2023/06/10 12:59:27;;;;;;;5.07;3.08;;;33.90;31.40;;;;;;7399909;19;20029;-83
2023/06/10 13:01:54;;;;;;;6.60;4.38;;;34.00;31.60;;;;;;7403817;19;20018;-86
2023/06/10 13:04:25;;;;;;;10.25;7.07;;;33.90;31.10;;;;;;7403001;19;20014;-84
2023/06/10 13:06:54;;;;;;;8.93;7.55;;;34.40;31.60;;;;;;7405811;19;20036;-85
2023/06/10 13:09:43;;;;;;;4.68;3.25;;;34.20;32.00;;;;;;7399730;19;20041;-84
2023/06/10 13:12:13;;;;;;;3.03;1.92;;;34.30;31.10;;;;;;7400944;19;20022;-84
2023/06/10 13:14:39;;;;;;;5.15;2.83;;;33.70;30.50;;;;;;7401266;19;20030;-82
2023/06/10 13:17:06;;;;;;;5.60;2.97;;;34.00;30.90;;;;;;7403510;19;20124;-86
2023/06/10 13:19:33;;;;;;;5.07;2.50;;;34.20;31.20;;;;;;7401006;19;20011;-82
2023/06/10 13:22:00;;;;;;;7.50;4.97;;;34.50;30.50;;;;;;7403494;19;20375;-82
2023/06/10 13:24:30;;;;;;;7.70;4.32;;;34.70;31.40;;;;;;7397949;19;20113;-84
2023/06/10 13:27:01;;;;;;;4.43;2.60;;;34.80;31.40;;;;;;7400091;19;20015;-81
2023/06/10 13:29:28;;;;;;;4.25;2.58;;;34.50;29.70;;;;;;7400166;19;20361;-79
2023/06/10 13:31:54;;;;;;;3.53;2.15;;;35.20;29.70;;;;;;7398360;19;20557;-81
2023/06/10 13:34:21;;;;;;;5.68;4.15;;;34.80;29.70;;;;;;7400807;19;20366;-81
2023/06/10 13:36:47;;;;;;;5.13;1.90;;;34.80;30.60;;;;;;7384901;19;20029;-85
2023/06/10 13:39:14;;;;;;;7.07;4.40;;;34.50;29.90;;;;;;7371520;19;20019;-82
2023/06/10 13:41:41;;;;;;;4.47;2.45;;;34.60;29.50;;;;;;7370934;19;20023;-81
2023/06/10 13:44:08;;;;;;;3.63;2.15;;;34.50;28.70;;;;;;7369596;19;20023;-80
2023/06/10 13:46:35;;;;;;;7.35;4.90;;;34.50;29.40;;;;;;7366324;19;20666;-80
2023/06/10 13:49:01;;;;;;;6.35;3.13;;;34.80;29.10;;;;;;7368113;19;20062;-81
2023/06/10 13:51:28;;;;;;;3.83;2.50;;;34.70;29.00;;;;;;7362836;19;20917;-85
2023/06/10 13:53:54;;;;;;;5.47;2.55;;;34.40;28.30;;;;;;7369929;19;20018;-84
2023/06/10 13:56:21;;;;;;;4.78;2.50;;;34.70;27.30;;;;;;7369167;19;20018;-82
2023/06/10 13:58:48;;;;;;;6.68;4.18;;;34.60;28.30;;;;;;7368352;19;20019;-83
2023/06/10 14:01:15;;;;;;;7.00;4.95;;;34.70;28.90;;;;;;7368013;19;20041;-79
2023/06/10 14:03:41;;;;;;;5.72;2.47;;;34.30;28.70;;;;;;7365782;19;20077;-80
2023/06/10 14:06:08;;;;;;;8.75;3.65;;;34.10;28.60;;;;;;7371473;19;20023;-81
2023/06/10 14:08:34;;;;;;;5.35;3.47;;;34.60;28.70;;;;;;7367849;19;20027;-81
2023/06/10 14:11:00;;;;;;;5.28;3.58;;;34.40;28.80;;;;;;7368443;19;20019;-83
2023/06/10 14:13:28;;;;;;;3.00;2.10;;;34.50;28.40;;;;;;7370380;19;20070;-80
2023/06/10 14:15:54;;;;;;;8.07;6.18;;;34.40;28.80;;;;;;7369292;19;20111;-82
2023/06/10 14:18:21;;;;;;;7.03;6.03;;;34.20;29.30;;;;;;7369040;19;20113;-86
2023/06/10 14:20:47;;;;;;;5.18;3.08;;;34.20;29.00;;;;;;7359521;19;20121;-81
2023/06/10 14:23:14;;;;;;;13.45;11.45;;;33.80;28.80;;;;;;7362253;19;20068;-80
2023/06/10 14:25:41;;;;;;;8.13;6.35;;;34.10;29.30;;;;;;7370040;19;20093;-82
2023/06/10 14:28:07;;;;;;;5.97;3.60;;;34.30;30.30;;;;;;7373420;19;20069;-80
2023/06/10 14:30:35;;;;;;;5.60;2.75;;;34.80;28.60;;;;;;7368503;19;20074;-80
2023/06/10 14:33:02;;;;;;;4.93;2.88;;;34.80;28.20;;;;;;7366292;19;20018;-82
2023/06/10 14:35:28;;;;;;;5.63;4.68;;;33.90;28.50;;;;;;7364666;19;20019;-81